createdAt,value
2016-09-24T00:02:03.135Z,11.5
2016-09-24T00:07:03.474Z,11.5
2016-09-24T00:12:03.810Z,11.5
2016-09-24T00:17:03.724Z,11.4
2016-09-24T00:22:03.805Z,11.4
2016-09-24T00:27:03.763Z,11.4
2016-09-24T00:32:03.804Z,11.3
2016-09-24T00:37:03.119Z,11.3
2016-09-24T00:42:03.099Z,11.2
2016-09-24T00:47:03.035Z,11.1
2016-09-24T00:52:03.598Z,11.0
2016-09-24T00:57:03.297Z,10.9
2016-09-24T01:02:03.283Z,10.7
2016-09-24T01:07:02.975Z,10.6
2016-09-24T01:12:03.394Z,10.7
2016-09-24T01:17:03.882Z,10.7
2016-09-24T01:22:03.409Z,10.7
2016-09-24T01:27:03.745Z,10.6
2016-09-24T01:32:03.158Z,10.7
2016-09-24T01:37:03.381Z,10.7
2016-09-24T01:42:03.441Z,10.7
2016-09-24T01:47:02.860Z,10.6
2016-09-24T01:52:03.340Z,10.6
2016-09-24T01:57:03.701Z,10.6
2016-09-24T02:02:03.332Z,10.6
2016-09-24T02:07:03.725Z,10.5
2016-09-24T02:12:03.580Z,10.4
2016-09-24T02:17:02.955Z,10.4
2016-09-24T02:22:03.471Z,10.3
2016-09-24T02:27:02.957Z,10.3
2016-09-24T02:32:03.459Z,10.2
2016-09-24T02:37:03.127Z,10.1
2016-09-24T02:42:03.398Z,10.1
2016-09-24T02:47:03.737Z,10.0
2016-09-24T02:52:03.134Z,9.9
2016-09-24T02:57:03.286Z,9.9
2016-09-24T03:02:03.721Z,9.9
2016-09-24T03:07:03.215Z,9.9
2016-09-24T03:12:03.443Z,10.0
2016-09-24T03:17:03.765Z,9.9
2016-09-24T03:22:03.105Z,9.9
2016-09-24T03:27:03.359Z,9.9
2016-09-24T03:32:03.516Z,9.9
2016-09-24T03:37:03.768Z,9.8
2016-09-24T03:42:03.144Z,9.7
2016-09-24T03:47:03.365Z,9.7
2016-09-24T03:52:03.471Z,9.5
2016-09-24T03:57:03.606Z,9.4
2016-09-24T04:02:03.144Z,9.3
2016-09-24T04:07:03.492Z,9.3
2016-09-24T04:12:03.569Z,9.3
2016-09-24T04:17:03.919Z,9.3
2016-09-24T04:22:03.287Z,9.4
2016-09-24T04:27:03.468Z,9.4
2016-09-24T04:32:03.514Z,9.4
2016-09-24T04:37:03.158Z,9.4
2016-09-24T04:42:03.764Z,9.3
2016-09-24T04:47:17.781Z,9.4
2016-09-24T04:52:02.882Z,9.3
2016-09-24T04:57:02.974Z,9.3
2016-09-24T05:02:17.051Z,9.3
2016-09-24T05:07:03.001Z,9.2
2016-09-24T05:12:03.039Z,9.2
2016-09-24T05:17:18.379Z,9.3
2016-09-24T05:22:03.502Z,9.3
2016-09-24T05:27:03.416Z,9.4
2016-09-24T05:32:16.882Z,9.5
2016-09-24T05:37:03.647Z,9.6
2016-09-24T05:42:02.902Z,9.7
2016-09-24T05:47:16.844Z,9.6
2016-09-24T05:52:03.382Z,9.7
2016-09-24T05:57:03.270Z,9.7
2016-09-24T06:02:17.000Z,9.8
2016-09-24T06:07:03.049Z,10.0
2016-09-24T06:12:03.115Z,10.2
2016-09-24T06:17:17.110Z,10.2
2016-09-24T06:22:03.526Z,10.2
2016-09-24T06:27:03.453Z,10.4
2016-09-24T06:32:16.872Z,10.5
2016-09-24T06:37:03.376Z,10.7
2016-09-24T06:42:03.373Z,11.2
2016-09-24T06:47:17.320Z,11.4
2016-09-24T06:52:03.180Z,11.3
2016-09-24T06:57:03.060Z,11.6
2016-09-24T07:02:17.080Z,12.0
2016-09-24T07:07:03.673Z,12.0
2016-09-24T07:12:03.677Z,12.3
2016-09-24T07:17:17.522Z,12.5
2016-09-24T07:22:03.181Z,12.9
2016-09-24T07:27:03.465Z,12.9
2016-09-24T07:32:16.682Z,13.2
2016-09-24T07:37:03.386Z,13.6
2016-09-24T07:42:03.700Z,14.0
2016-09-24T07:47:16.782Z,14.3
2016-09-24T07:52:03.792Z,14.8
2016-09-24T07:57:03.223Z,14.9
2016-09-24T08:02:16.834Z,15.2
2016-09-24T08:07:03.401Z,15.8
2016-09-24T08:12:03.368Z,15.8
2016-09-24T08:17:17.123Z,16.2
2016-09-24T08:22:03.606Z,16.8
2016-09-24T08:27:03.411Z,16.8
2016-09-24T08:32:27.090Z,17.1
2016-09-24T08:37:03.792Z,17.8
2016-09-24T08:42:03.611Z,18.1
2016-09-24T08:47:13.509Z,18.1
2016-09-24T08:52:03.753Z,18.9
2016-09-24T08:57:03.780Z,18.9
2016-09-24T09:02:22.351Z,19.5
2016-09-24T09:07:02.997Z,19.5
2016-09-24T09:12:03.679Z,20.0
2016-09-24T09:17:17.657Z,20.3
2016-09-24T09:22:03.510Z,21.0
2016-09-24T09:27:03.763Z,21.0
2016-09-24T09:37:03.753Z,21.7
2016-09-24T09:42:03.327Z,22.2
2016-09-24T09:47:25.678Z,22.2
2016-09-24T09:52:03.080Z,22.6
2016-09-24T09:57:03.070Z,23.0
2016-09-24T10:02:16.775Z,23.4
2016-09-24T10:07:03.101Z,23.3
2016-09-24T10:12:03.613Z,23.8
2016-09-24T10:17:17.162Z,23.8
2016-09-24T10:22:03.137Z,24.1
2016-09-24T10:27:03.192Z,24.4
2016-09-24T10:32:16.909Z,25.0
2016-09-24T10:37:03.253Z,25.3
2016-09-24T10:42:03.650Z,25.6
2016-09-24T10:47:17.366Z,25.5
2016-09-24T10:52:02.904Z,26.1
2016-09-24T10:57:03.536Z,26.1
2016-09-24T11:02:16.579Z,26.3
2016-09-24T11:07:03.482Z,26.3
2016-09-24T11:12:03.599Z,26.4
2016-09-24T11:17:22.153Z,26.5
2016-09-24T11:22:03.725Z,26.6
2016-09-24T11:27:03.065Z,26.7
2016-09-24T11:32:17.626Z,26.7
2016-09-24T11:37:03.079Z,26.8
2016-09-24T11:42:03.550Z,27.0
2016-09-24T11:47:14.662Z,27.1
2016-09-24T11:52:03.199Z,27.1
2016-09-24T11:57:03.416Z,27.4
2016-09-24T12:02:17.302Z,27.7
2016-09-24T12:07:03.080Z,28.0
2016-09-24T12:12:03.026Z,28.0
2016-09-24T12:17:17.595Z,28.3
2016-09-24T12:22:03.233Z,28.5
2016-09-24T12:27:03.363Z,28.5
2016-09-24T12:32:17.419Z,28.4
2016-09-24T12:37:03.155Z,28.6
2016-09-24T12:42:03.480Z,29.0
2016-09-24T12:47:17.106Z,29.3
2016-09-24T12:52:03.450Z,29.3
2016-09-24T12:57:03.514Z,29.4
2016-09-24T13:02:17.298Z,29.7
2016-09-24T13:07:03.119Z,29.9
2016-09-24T13:12:03.084Z,30.1
2016-09-24T13:17:17.394Z,30.2
2016-09-24T13:22:03.749Z,30.3
2016-09-24T13:27:03.508Z,30.3
2016-09-24T13:32:16.875Z,30.3
2016-09-24T13:37:03.253Z,30.7
2016-09-24T13:42:03.153Z,31.3
2016-09-24T13:47:16.712Z,31.5
2016-09-24T13:52:03.304Z,31.6
2016-09-24T13:57:02.955Z,31.5
2016-09-24T20:02:03.202Z,16.6
2016-09-24T20:07:03.057Z,16.2
2016-09-24T20:12:03.025Z,16.1
2016-09-24T20:17:03.677Z,15.8
2016-09-24T20:22:03.147Z,15.6
2016-09-24T20:27:03.258Z,15.6
2016-09-24T20:32:03.173Z,15.5
2016-09-24T20:37:03.502Z,15.6
2016-09-24T20:42:03.205Z,15.5
2016-09-24T20:47:03.149Z,15.5
2016-09-24T20:52:03.688Z,15.4
2016-09-24T20:57:02.995Z,15.5
2016-09-24T21:02:03.261Z,15.3
2016-09-24T21:07:03.365Z,15.4
2016-09-24T21:12:03.165Z,15.3
2016-09-24T21:17:03.782Z,15.2
2016-09-24T21:22:03.359Z,15.2
2016-09-24T21:27:03.315Z,15.0
2016-09-24T21:32:03.920Z,14.8
2016-09-24T21:37:03.278Z,14.7
2016-09-24T21:42:02.878Z,14.8
2016-09-24T21:47:03.397Z,14.7
2016-09-24T21:52:02.857Z,14.7
2016-09-24T21:57:02.876Z,14.6
2016-09-24T22:02:03.429Z,14.5
2016-09-24T22:07:03.803Z,14.4
2016-09-24T22:12:03.360Z,14.4
2016-09-24T22:22:03.524Z,14.0
2016-09-24T22:27:03.637Z,14.0
2016-09-24T22:32:03.027Z,14.1
2016-09-24T22:37:03.639Z,14.1
2016-09-24T22:42:03.154Z,14.0
2016-09-24T22:47:03.718Z,13.8
2016-09-24T22:52:03.383Z,13.5
2016-09-24T22:57:03.694Z,13.1
2016-09-24T23:02:02.918Z,13.2
2016-09-24T23:07:03.756Z,13.2
2016-09-24T23:12:03.102Z,13.1
2016-09-24T23:17:03.505Z,13.2
2016-09-24T23:22:08.667Z,13.2
2016-09-24T23:27:03.612Z,13.3
2016-09-24T23:32:08.834Z,13.2
2016-09-24T23:37:03.090Z,13.3
2016-09-24T23:42:03.338Z,13.3
2016-09-24T23:47:03.733Z,13.0
2016-09-24T23:52:03.608Z,13.0
2016-09-24T23:57:03.211Z,12.8
